createdAt,value
2023-05-24T00:00:28.922Z,15.63
2023-05-24T00:02:57.856Z,15.61
2023-05-24T00:05:25.560Z,15.61
2023-05-24T00:07:52.879Z,15.60
2023-05-24T00:10:20.846Z,15.57
2023-05-24T00:12:48.302Z,15.57
2023-05-24T00:15:15.664Z,15.55
2023-05-24T00:17:44.620Z,15.57
2023-05-24T00:20:13.572Z,15.58
2023-05-24T00:22:41.861Z,15.55
2023-05-24T00:25:09.754Z,15.57
2023-05-24T00:27:37.824Z,15.54
2023-05-24T00:30:08.057Z,15.53
2023-05-24T00:32:44.529Z,15.55
2023-05-24T00:35:12.226Z,15.56
2023-05-24T00:37:42.089Z,15.57
2023-05-24T00:40:10.396Z,15.58
2023-05-24T00:42:38.085Z,15.52
2023-05-24T00:45:06.964Z,15.47
2023-05-24T00:47:37.161Z,15.43
2023-05-24T00:50:08.691Z,15.38
2023-05-24T00:52:36.868Z,15.37
2023-05-24T00:55:04.988Z,15.39
2023-05-24T00:57:33.031Z,15.42
2023-05-24T01:00:00.880Z,15.46
2023-05-24T01:02:28.622Z,15.50
2023-05-24T01:04:56.444Z,15.53
2023-05-24T01:07:33.313Z,15.54
2023-05-24T01:10:09.239Z,15.61
2023-05-24T01:12:51.112Z,15.65
2023-05-24T01:15:24.493Z,15.69
2023-05-24T01:18:01.753Z,15.69
2023-05-24T01:20:33.495Z,15.74
2023-05-24T01:23:26.938Z,15.78
2023-05-24T01:26:19.828Z,15.81
2023-05-24T01:28:50.334Z,15.80
2023-05-24T01:31:19.433Z,15.80
2023-05-24T01:33:50.578Z,15.80
2023-05-24T01:36:21.348Z,15.81
2023-05-24T01:38:49.882Z,15.81
2023-05-24T01:41:27.501Z,15.81
2023-05-24T01:44:04.994Z,15.77
2023-05-24T01:46:40.537Z,15.75
2023-05-24T01:49:22.558Z,15.70
2023-05-24T01:52:07.167Z,15.67
2023-05-24T01:54:39.818Z,15.63
2023-05-24T01:57:09.481Z,15.62
2023-05-24T01:59:42.150Z,15.65
2023-05-24T02:02:10.186Z,15.66
2023-05-24T02:04:38.023Z,15.63
2023-05-24T02:07:05.658Z,15.61
2023-05-24T02:09:33.219Z,15.57
2023-05-24T02:12:00.578Z,15.57
2023-05-24T02:14:28.197Z,15.52
2023-05-24T02:16:59.151Z,15.52
2023-05-24T02:19:27.514Z,15.52
2023-05-24T02:21:55.271Z,15.53
2023-05-24T02:24:22.565Z,15.55
2023-05-24T02:26:50.013Z,15.57
2023-05-24T02:29:17.691Z,15.62
2023-05-24T02:31:45.154Z,15.61
2023-05-24T02:34:13.939Z,15.59
2023-05-24T02:36:41.220Z,15.57
2023-05-24T02:39:08.670Z,15.58
2023-05-24T02:41:36.173Z,15.61
2023-05-24T02:44:22.495Z,15.63
2023-05-24T02:46:50.269Z,15.60
2023-05-24T02:49:18.982Z,15.60
2023-05-24T02:51:46.823Z,15.57
2023-05-24T02:54:17.855Z,15.55
2023-05-24T02:56:45.287Z,15.58
2023-05-24T02:59:15.138Z,15.60
2023-05-24T03:01:42.916Z,15.61
2023-05-24T03:04:10.493Z,15.60
2023-05-24T03:06:39.918Z,15.60
2023-05-24T03:09:09.371Z,15.62
2023-05-24T03:11:37.018Z,15.67
2023-05-24T03:14:06.441Z,15.74
2023-05-24T03:16:34.090Z,15.81
2023-05-24T03:19:01.607Z,15.86
2023-05-24T03:21:29.036Z,15.93
2023-05-24T03:23:59.022Z,15.97
2023-05-24T03:26:27.228Z,16.03
2023-05-24T03:28:54.749Z,16.07
2023-05-24T03:31:28.312Z,16.10
2023-05-24T03:33:56.247Z,16.16
2023-05-24T03:36:26.246Z,16.21
2023-05-24T03:38:53.719Z,16.23
2023-05-24T03:41:23.515Z,16.24
2023-05-24T03:43:51.749Z,16.25
2023-05-24T03:46:20.799Z,16.24
2023-05-24T03:48:49.098Z,16.23
2023-05-24T03:51:16.895Z,16.27
2023-05-24T03:53:44.513Z,16.26
2023-05-24T03:56:11.916Z,16.25
2023-05-24T03:58:40.781Z,16.26
2023-05-24T04:01:08.441Z,16.26
2023-05-24T04:03:36.765Z,16.31
2023-05-24T04:06:05.246Z,16.34
2023-05-24T04:08:32.913Z,16.40
2023-05-24T04:11:00.316Z,16.48
2023-05-24T04:13:27.590Z,16.57
2023-05-24T04:15:56.641Z,16.67
2023-05-24T04:18:24.225Z,16.71
2023-05-24T04:20:52.531Z,16.74
2023-05-24T04:23:21.117Z,16.88
2023-05-24T04:25:48.841Z,17.08
2023-05-24T04:28:16.393Z,17.32
2023-05-24T04:30:46.218Z,17.54
2023-05-24T04:33:17.053Z,17.73
2023-05-24T04:35:44.553Z,17.91
2023-05-24T04:38:12.890Z,18.08
2023-05-24T04:40:40.508Z,18.26
2023-05-24T04:43:10.856Z,18.42
2023-05-24T04:45:57.432Z,18.59
2023-05-24T04:48:26.323Z,18.70
2023-05-24T04:50:55.091Z,18.82
2023-05-24T04:53:23.317Z,18.84
2023-05-24T04:55:51.324Z,18.76
2023-05-24T04:58:18.838Z,18.60
2023-05-24T05:00:46.486Z,18.53
2023-05-24T05:03:14.092Z,18.43
2023-05-24T05:05:43.022Z,18.34
2023-05-24T05:08:10.623Z,18.30
2023-05-24T05:10:38.091Z,18.30
2023-05-24T05:13:06.055Z,18.25
2023-05-24T05:15:33.565Z,18.19
2023-05-24T05:18:01.128Z,18.13
2023-05-24T05:20:28.557Z,18.15
2023-05-24T05:22:57.315Z,18.16
2023-05-24T05:25:24.844Z,18.20
2023-05-24T05:27:52.213Z,18.21
2023-05-24T05:30:19.826Z,18.21
2023-05-24T05:32:47.551Z,18.16
2023-05-24T05:35:15.212Z,18.15
2023-05-24T05:37:42.662Z,18.16
2023-05-24T05:40:12.664Z,18.13
2023-05-24T05:42:40.097Z,18.16
2023-05-24T05:45:08.728Z,18.20
2023-05-24T05:47:36.671Z,18.22
2023-05-24T05:50:04.328Z,18.25
2023-05-24T05:52:32.968Z,18.30
2023-05-24T05:55:00.835Z,18.39
2023-05-24T05:57:29.610Z,18.47
2023-05-24T05:59:56.996Z,18.42
2023-05-24T06:02:24.407Z,18.36
2023-05-24T06:04:51.953Z,18.35
2023-05-24T06:07:19.414Z,18.39
2023-05-24T06:09:46.648Z,18.48
2023-05-24T06:12:14.003Z,18.54
2023-05-24T06:14:42.718Z,18.63
2023-05-24T06:17:10.019Z,18.69
2023-05-24T06:19:37.496Z,18.77
2023-05-24T06:22:04.974Z,18.84
2023-05-24T06:24:34.559Z,18.84
2023-05-24T06:27:03.298Z,18.83
2023-05-24T06:29:32.573Z,18.76
2023-05-24T06:32:01.550Z,18.72
2023-05-24T06:34:29.980Z,18.66
2023-05-24T06:36:58.286Z,18.57
2023-05-24T06:39:26.415Z,18.51
2023-05-24T06:41:54.043Z,18.52
2023-05-24T06:44:33.625Z,18.59
2023-05-24T06:47:02.705Z,18.75
2023-05-24T06:49:31.447Z,18.86
2023-05-24T06:51:59.006Z,18.91
2023-05-24T06:54:26.478Z,19.00
2023-05-24T06:56:54.014Z,19.06
2023-05-24T06:59:21.611Z,19.11
2023-05-24T07:01:51.824Z,19.21
2023-05-24T07:04:20.780Z,19.24
2023-05-24T07:06:48.280Z,19.16
2023-05-24T07:09:16.084Z,19.08
2023-05-24T07:11:43.604Z,19.07
2023-05-24T07:14:11.070Z,19.13
2023-05-24T07:16:38.353Z,19.13
2023-05-24T07:19:05.875Z,19.10
2023-05-24T07:21:34.795Z,19.09
2023-05-24T07:24:04.111Z,18.98
2023-05-24T07:26:31.874Z,18.95
2023-05-24T07:28:59.539Z,18.95
2023-05-24T07:31:27.545Z,18.97
2023-05-24T07:33:54.913Z,18.98
2023-05-24T07:36:22.245Z,18.96
2023-05-24T07:38:51.034Z,18.87
2023-05-24T07:41:19.843Z,18.73
2023-05-24T07:43:49.577Z,18.65
2023-05-24T07:46:17.049Z,18.56
2023-05-24T07:48:44.448Z,18.50
2023-05-24T07:51:12.709Z,18.51
2023-05-24T07:53:40.346Z,18.48
2023-05-24T07:56:10.032Z,18.42
2023-05-24T07:58:37.889Z,18.40
2023-05-24T08:01:05.878Z,18.42
2023-05-24T08:03:35.187Z,18.45
2023-05-24T08:06:03.077Z,18.48
2023-05-24T08:08:30.546Z,18.55
2023-05-24T08:10:58.233Z,18.62
2023-05-24T08:13:27.118Z,18.69
2023-05-24T08:15:54.687Z,18.75
2023-05-24T08:18:22.236Z,18.82
2023-05-24T08:20:49.810Z,18.87
2023-05-24T08:23:17.450Z,18.89
2023-05-24T08:25:45.040Z,18.89
2023-05-24T08:28:12.648Z,18.93
2023-05-24T08:30:41.642Z,18.99
2023-05-24T08:33:09.241Z,19.05
2023-05-24T08:35:37.161Z,19.14
2023-05-24T08:38:04.778Z,19.27
2023-05-24T08:40:32.137Z,19.39
2023-05-24T08:43:04.263Z,19.52
2023-05-24T08:45:33.321Z,19.58
2023-05-24T08:48:02.718Z,19.57
2023-05-24T08:50:31.897Z,19.70
2023-05-24T08:52:59.919Z,19.91
2023-05-24T08:55:33.034Z,20.13
2023-05-24T08:58:01.494Z,20.37
2023-05-24T09:00:28.864Z,20.55
2023-05-24T09:02:59.121Z,20.68
2023-05-24T09:05:30.455Z,20.73
2023-05-24T09:08:01.191Z,20.65
2023-05-24T09:10:35.306Z,20.61
2023-05-24T09:13:10.206Z,20.66
2023-05-24T09:15:38.200Z,20.88
2023-05-24T09:18:06.177Z,21.05
2023-05-24T09:20:35.256Z,21.24
2023-05-24T09:23:04.747Z,21.36
2023-05-24T09:25:32.461Z,21.44
2023-05-24T09:28:06.521Z,21.50
2023-05-24T09:30:34.067Z,21.37
2023-05-24T09:33:02.074Z,21.32
2023-05-24T09:35:29.912Z,21.29
2023-05-24T09:38:01.919Z,21.30
2023-05-24T09:40:30.224Z,21.29
2023-05-24T09:43:05.998Z,21.41
2023-05-24T09:45:33.609Z,21.46
2023-05-24T09:48:04.604Z,21.48
2023-05-24T09:50:32.104Z,21.41
2023-05-24T09:53:08.487Z,21.24
2023-05-24T09:55:37.378Z,21.05
2023-05-24T09:58:08.450Z,20.93
2023-05-24T10:00:40.166Z,20.92
2023-05-24T10:03:11.138Z,20.94
2023-05-24T10:05:39.217Z,21.02
2023-05-24T10:08:11.754Z,21.06
2023-05-24T10:10:39.223Z,21.09
2023-05-24T10:13:07.770Z,21.15
2023-05-24T10:15:35.126Z,21.23
2023-05-24T10:20:58.273Z,21.43
2023-05-24T10:23:30.955Z,21.50
2023-05-24T10:26:04.557Z,21.53
2023-05-24T10:28:33.517Z,21.44
2023-05-24T10:31:06.006Z,21.40
2023-05-24T10:33:37.409Z,21.44
2023-05-24T10:36:09.449Z,21.46
2023-05-24T10:38:40.669Z,21.53
2023-05-24T10:41:08.611Z,21.64
2023-05-24T10:41:46.628Z,21.32
2023-05-24T10:43:36.764Z,21.86
2023-05-24T10:46:05.489Z,22.15
2023-05-24T10:48:42.793Z,22.36
2023-05-24T10:51:33.823Z,22.62
2023-05-24T10:54:27.344Z,22.92
2023-05-24T10:56:57.008Z,23.01
2023-05-24T10:59:33.620Z,22.93
2023-05-24T11:02:02.014Z,22.86
2023-05-24T11:04:34.347Z,22.77
2023-05-24T11:07:03.958Z,22.61
2023-05-24T11:09:33.690Z,22.37
2023-05-24T11:12:04.266Z,22.36
2023-05-24T11:14:35.063Z,22.33
2023-05-24T11:17:02.924Z,22.30
2023-05-24T11:19:34.274Z,22.39
2023-05-24T11:22:03.254Z,22.53
2023-05-24T11:24:32.899Z,22.55
2023-05-24T11:27:02.283Z,22.50
2023-05-24T11:29:30.319Z,22.49
2023-05-24T11:32:04.711Z,22.39
2023-05-24T11:34:33.093Z,22.22
2023-05-24T11:37:01.458Z,22.14
2023-05-24T11:39:29.917Z,22.16
2023-05-24T11:41:58.909Z,22.11
2023-05-24T11:44:31.118Z,22.08
2023-05-24T11:46:59.467Z,21.98
2023-05-24T11:49:27.615Z,21.90
2023-05-24T11:51:56.689Z,21.88
2023-05-24T11:54:24.469Z,21.90
2023-05-24T11:56:53.387Z,21.83
2023-05-24T11:59:25.901Z,21.75
2023-05-24T12:01:58.973Z,21.75
2023-05-24T12:04:28.048Z,21.78
2023-05-24T12:06:56.241Z,21.86
2023-05-24T12:09:24.225Z,21.74
2023-05-24T12:11:53.012Z,21.71
2023-05-24T12:14:26.436Z,21.63
2023-05-24T12:16:58.544Z,21.60
2023-05-24T12:19:33.904Z,21.57
2023-05-24T12:22:05.446Z,21.49
2023-05-24T12:24:33.227Z,21.44
2023-05-24T12:27:03.432Z,21.43
2023-05-24T12:29:35.542Z,21.49
2023-05-24T12:32:03.696Z,21.53
2023-05-24T12:34:31.295Z,21.60
2023-05-24T12:37:00.108Z,21.70
2023-05-24T12:39:32.012Z,21.83
2023-05-24T12:42:01.961Z,21.84
2023-05-24T12:44:31.682Z,21.86
2023-05-24T12:47:02.613Z,21.89
2023-05-24T12:49:32.139Z,21.95
2023-05-24T12:52:00.361Z,22.02
2023-05-24T12:54:28.899Z,22.13
2023-05-24T12:56:57.810Z,22.26
2023-05-24T12:59:26.321Z,22.31
2023-05-24T13:01:54.040Z,22.36
2023-05-24T13:04:26.462Z,22.40
2023-05-24T13:06:54.127Z,22.47
2023-05-24T13:09:23.911Z,22.58
2023-05-24T13:11:52.657Z,22.75
2023-05-24T13:14:21.038Z,22.90
2023-05-24T13:16:49.112Z,22.98
2023-05-24T13:19:17.517Z,23.02
2023-05-24T13:21:47.291Z,23.02
2023-05-24T13:24:16.238Z,22.95
2023-05-24T13:26:44.849Z,22.81
2023-05-24T13:31:43.743Z,22.75
2023-05-24T13:34:11.700Z,22.74
2023-05-24T13:36:40.023Z,22.57
2023-05-24T13:41:42.300Z,22.45
2023-05-24T13:44:10.443Z,22.42
2023-05-24T13:46:38.982Z,22.27
2023-05-24T13:49:09.446Z,22.11
2023-05-24T13:51:37.823Z,22.03
2023-05-24T13:54:07.502Z,22.02
2023-05-24T13:56:37.275Z,22.05
2023-05-24T13:59:05.480Z,22.03
2023-05-24T14:01:34.312Z,21.96
2023-05-24T14:04:02.585Z,21.96
2023-05-24T14:06:30.484Z,21.92
2023-05-24T14:08:58.207Z,21.88
2023-05-24T14:11:26.391Z,21.86
2023-05-24T14:14:43.718Z,21.93
2023-05-24T14:16:43.070Z,21.94
2023-05-24T14:19:10.978Z,21.88
2023-05-24T14:21:38.665Z,21.88
2023-05-24T14:24:06.210Z,21.79
2023-05-24T14:26:33.577Z,21.73
2023-05-24T14:29:02.347Z,21.73
2023-05-24T14:31:29.747Z,21.80
2023-05-24T14:33:57.148Z,21.89
2023-05-24T14:36:24.712Z,21.98
2023-05-24T14:38:52.023Z,22.08
2023-05-24T14:41:19.684Z,22.16
2023-05-24T14:43:47.108Z,22.17
2023-05-24T14:46:16.094Z,22.13
2023-05-24T14:48:43.638Z,22.11
2023-05-24T14:51:11.098Z,22.08
2023-05-24T14:53:38.522Z,21.96
2023-05-24T14:56:08.439Z,21.91
2023-05-24T14:58:36.457Z,21.89
2023-05-24T15:01:04.229Z,21.87
2023-05-24T15:03:33.589Z,21.86
2023-05-24T15:06:01.218Z,21.78
2023-05-24T15:08:29.044Z,21.71
2023-05-24T15:10:58.711Z,21.66
2023-05-24T15:13:26.620Z,21.64
2023-05-24T15:15:56.706Z,21.65
2023-05-24T15:18:25.834Z,21.66
2023-05-24T15:20:55.007Z,21.63
2023-05-24T15:23:22.699Z,21.61
2023-05-24T15:25:50.688Z,21.60
2023-05-24T15:28:18.709Z,21.61
2023-05-24T15:30:47.297Z,21.58
2023-05-24T15:33:17.086Z,21.56
2023-05-24T15:35:44.717Z,21.50
2023-05-24T15:38:14.244Z,21.45
2023-05-24T15:40:42.920Z,21.38
2023-05-24T15:43:11.122Z,21.34
2023-05-24T15:45:38.804Z,21.32
2023-05-24T15:48:06.314Z,21.33
2023-05-24T15:50:54.055Z,21.33
2023-05-24T15:53:23.476Z,21.36
2023-05-24T15:55:51.127Z,21.36
2023-05-24T15:58:18.605Z,21.35
2023-05-24T16:00:45.955Z,21.31
2023-05-24T16:03:15.909Z,21.27
2023-05-24T16:05:48.905Z,21.22
2023-05-24T16:08:17.105Z,21.18
2023-05-24T16:10:46.218Z,21.18
2023-05-24T16:13:13.882Z,21.18
2023-05-24T16:15:42.685Z,21.14
2023-05-24T16:18:10.302Z,21.13
2023-05-24T16:20:37.889Z,21.07
2023-05-24T16:23:05.440Z,21.01
2023-05-24T16:25:33.044Z,21.01
2023-05-24T16:28:01.860Z,21.00
2023-05-24T16:30:29.960Z,20.97
2023-05-24T16:32:57.248Z,20.95
2023-05-24T16:35:24.894Z,20.94
2023-05-24T16:37:52.261Z,20.94
2023-05-24T16:40:19.689Z,20.93
2023-05-24T16:42:50.046Z,20.94
2023-05-24T16:45:19.415Z,20.94
2023-05-24T16:47:46.870Z,20.94
2023-05-24T16:50:17.034Z,20.95
2023-05-24T16:52:45.345Z,20.95
2023-05-24T16:55:16.086Z,20.93
2023-05-24T16:57:43.556Z,20.90
2023-05-24T17:00:11.926Z,20.86
2023-05-24T17:02:41.050Z,20.84
2023-05-24T17:05:09.073Z,20.80
2023-05-24T17:07:37.047Z,20.81
2023-05-24T17:10:05.132Z,20.77
2023-05-24T17:12:32.631Z,20.77
2023-05-24T17:15:00.155Z,20.76
2023-05-24T17:17:27.744Z,20.72
2023-05-24T17:22:24.401Z,20.66
2023-05-24T17:24:51.986Z,20.65
2023-05-24T17:27:22.023Z,20.63
2023-05-24T17:29:50.063Z,20.62
2023-05-24T17:32:17.476Z,20.60
2023-05-24T17:34:44.853Z,20.57
2023-05-24T17:37:13.620Z,20.53
2023-05-24T17:39:41.576Z,20.52
2023-05-24T17:42:09.052Z,20.50
2023-05-24T17:44:36.607Z,20.48
2023-05-24T17:47:04.863Z,20.44
2023-05-24T17:49:32.569Z,20.44
2023-05-24T17:52:01.033Z,20.43
2023-05-24T17:54:33.386Z,20.45
2023-05-24T17:57:03.133Z,20.39
2023-05-24T17:59:30.874Z,20.44
2023-05-24T18:01:58.167Z,20.43
2023-05-24T18:04:25.748Z,20.39
2023-05-24T18:06:53.237Z,20.39
2023-05-24T18:09:21.642Z,20.38
2023-05-24T18:11:50.847Z,20.36
2023-05-24T18:14:18.524Z,20.33
2023-05-24T18:16:46.218Z,20.29
2023-05-24T18:19:13.558Z,20.25
2023-05-24T18:21:41.191Z,20.23
2023-05-24T18:24:08.662Z,20.20
2023-05-24T18:26:35.986Z,20.18
2023-05-24T18:29:04.902Z,20.15
2023-05-24T18:31:32.213Z,20.12
2023-05-24T18:34:01.624Z,20.10
2023-05-24T18:36:29.918Z,20.03
2023-05-24T18:38:57.489Z,20.01
2023-05-24T18:41:25.031Z,19.99
2023-05-24T18:43:52.752Z,19.94
2023-05-24T18:46:21.600Z,19.91
2023-05-24T18:48:49.381Z,19.88
2023-05-24T18:51:16.814Z,19.83
2023-05-24T18:53:44.258Z,19.80
2023-05-24T18:56:11.820Z,19.77
2023-05-24T18:58:39.181Z,19.72
2023-05-24T19:01:06.634Z,19.70
2023-05-24T19:03:35.644Z,19.67
2023-05-24T19:06:02.947Z,19.62
2023-05-24T19:08:30.279Z,19.58
2023-05-24T19:10:57.643Z,19.53
2023-05-24T19:13:26.786Z,19.45
2023-05-24T19:15:54.532Z,19.40
2023-05-24T19:18:23.099Z,19.37
2023-05-24T19:20:52.156Z,19.33
2023-05-24T19:23:19.557Z,19.27
2023-05-24T19:25:50.286Z,19.20
2023-05-24T19:28:18.030Z,19.09
2023-05-24T19:30:45.906Z,18.99
2023-05-24T19:33:13.502Z,18.91
2023-05-24T19:35:41.254Z,18.84
2023-05-24T19:38:10.260Z,18.79
2023-05-24T19:40:37.787Z,18.70
2023-05-24T19:43:05.263Z,18.61
2023-05-24T19:45:32.544Z,18.53
2023-05-24T19:48:00.218Z,18.45
2023-05-24T19:50:30.550Z,18.37
2023-05-24T19:52:58.473Z,18.34
2023-05-24T19:55:27.604Z,18.32
2023-05-24T19:57:54.916Z,18.30
2023-05-24T20:00:22.485Z,18.28
2023-05-24T20:02:49.916Z,18.25
2023-05-24T20:05:17.839Z,18.19
2023-05-24T20:07:45.571Z,18.15
2023-05-24T20:10:13.218Z,18.08
2023-05-24T20:12:42.880Z,18.00
2023-05-24T20:15:11.651Z,17.95
2023-05-24T20:17:39.080Z,17.89
2023-05-24T20:20:07.729Z,17.86
2023-05-24T20:22:35.079Z,17.82
2023-05-24T20:25:02.706Z,17.78
2023-05-24T20:27:31.509Z,17.72
2023-05-24T20:30:00.313Z,17.66
2023-05-24T20:32:28.140Z,17.64
2023-05-24T20:34:55.414Z,17.60
2023-05-24T20:37:22.656Z,17.56
2023-05-24T20:39:50.080Z,17.49
2023-05-24T20:42:18.504Z,17.40
2023-05-24T20:44:46.062Z,17.32
2023-05-24T20:47:19.306Z,17.25
2023-05-24T20:49:46.838Z,17.21
2023-05-24T20:52:16.321Z,17.17
2023-05-24T20:54:43.937Z,17.15
2023-05-24T20:57:11.504Z,17.14
2023-05-24T20:59:38.769Z,17.11
2023-05-24T21:02:06.578Z,17.09
2023-05-24T21:04:35.565Z,17.04
2023-05-24T21:07:03.007Z,16.99
2023-05-24T21:09:30.649Z,16.98
2023-05-24T21:11:58.208Z,16.96
2023-05-24T21:14:26.932Z,16.95
2023-05-24T21:16:54.888Z,16.93
2023-05-24T21:19:22.433Z,16.89
2023-05-24T21:21:51.471Z,16.84
2023-05-24T21:24:19.149Z,16.78
2023-05-24T21:26:46.765Z,16.70
2023-05-24T21:29:14.163Z,16.66
2023-05-24T21:31:41.713Z,16.59
2023-05-24T21:34:09.309Z,16.54
2023-05-24T21:36:37.851Z,16.49
2023-05-24T21:39:08.436Z,16.47
2023-05-24T21:41:37.606Z,16.43
2023-05-24T21:44:07.016Z,16.38
2023-05-24T21:46:35.009Z,16.34
2023-05-24T21:49:02.623Z,16.31
2023-05-24T21:51:30.156Z,16.29
2023-05-24T21:53:57.573Z,16.27
2023-05-24T21:56:27.211Z,16.26
2023-05-24T21:58:54.674Z,16.23
2023-05-24T22:01:22.185Z,16.22
2023-05-24T22:03:49.985Z,16.22
2023-05-24T22:06:17.419Z,16.23
2023-05-24T22:08:44.770Z,16.24
2023-05-24T22:11:12.182Z,16.23
2023-05-24T22:13:41.106Z,16.23
2023-05-24T22:16:09.562Z,16.19
2023-05-24T22:18:37.068Z,16.20
2023-05-24T22:21:04.640Z,16.18
2023-05-24T22:23:32.094Z,16.15
2023-05-24T22:25:59.600Z,16.14
2023-05-24T22:28:26.925Z,16.15
2023-05-24T22:30:55.619Z,16.15
2023-05-24T22:33:22.957Z,16.15
2023-05-24T22:35:51.576Z,16.13
2023-05-24T22:38:18.906Z,16.10
2023-05-24T22:40:47.160Z,16.07
2023-05-24T22:43:14.665Z,16.03
2023-05-24T22:45:42.239Z,16.00
2023-05-24T22:48:11.134Z,15.99
2023-05-24T22:50:38.606Z,15.98
2023-05-24T22:53:05.983Z,15.96
2023-05-24T22:55:33.338Z,15.90
2023-05-24T22:58:01.961Z,15.80
2023-05-24T23:00:29.556Z,15.70
2023-05-24T23:02:56.917Z,15.61
2023-05-24T23:05:25.644Z,15.56
2023-05-24T23:07:55.143Z,15.53
2023-05-24T23:10:22.624Z,15.48
2023-05-24T23:12:50.566Z,15.39
2023-05-24T23:15:18.435Z,15.30
2023-05-24T23:17:47.187Z,15.27
2023-05-24T23:20:14.837Z,15.26
2023-05-24T23:22:43.760Z,15.28
2023-05-24T23:25:11.173Z,15.29
2023-05-24T23:27:39.666Z,15.30
2023-05-24T23:30:08.320Z,15.29
2023-05-24T23:32:35.894Z,15.29
2023-05-24T23:35:03.334Z,15.29
2023-05-24T23:37:31.287Z,15.28
2023-05-24T23:40:02.476Z,15.27
2023-05-24T23:42:31.709Z,15.28
2023-05-24T23:44:59.527Z,15.29
2023-05-24T23:47:26.849Z,15.25
2023-05-24T23:49:54.339Z,15.20
2023-05-24T23:52:21.765Z,15.16
2023-05-24T23:54:49.371Z,15.11
2023-05-24T23:57:20.215Z,15.08
2023-05-24T23:59:47.654Z,15.02
